Terminal Aerodrome Forecast
Issued by NWS Jacksonville, FL

Home | Current Version | Previous Version | Text Only | Print | Product List | Glossary On
Versions: 1 2 3 4 5 6 7 8 9 10 11 12 13 14 15
000
FTUS42 KJAX 272320
TAFJAX
TAF
KJAX 272320Z 2800/2824 06010G15KT P6SM VCSH FEW020 SCT060 BKN120
      TEMPO 2800/2804 5SM SHRA SCT020 BKN040
     FM280400 06005KT P6SM FEW030 SCT250
     FM281400 08010G15KT P6SM VCSH SCT025 BKN040 PROB30 2818/2824
      5SM TSRA BKN050CB=

USA.gov is the U.S. government's official web portal to all federal, state and local government web resources and services.